sensor_id;sensor_type;location;lat;lon;timestamp;temperature;humidity
4602;DHT22;2313;48.552;9.370;2023-02-12T00:02:06;4.70;99.90
4602;DHT22;2313;48.552;9.370;2023-02-12T00:04:32;4.80;99.90
4602;DHT22;2313;48.552;9.370;2023-02-12T00:06:58;4.70;99.90
4602;DHT22;2313;48.552;9.370;2023-02-12T00:09:23;4.70;99.90
4602;DHT22;2313;48.552;9.370;2023-02-12T00:11:49;4.70;99.90
4602;DHT22;2313;48.552;9.370;2023-02-12T00:14:14;4.60;99.90
4602;DHT22;2313;48.552;9.370;2023-02-12T00:16:40;4.60;99.90
4602;DHT22;2313;48.552;9.370;2023-02-12T00:19:06;4.60;99.90
4602;DHT22;2313;48.552;9.370;2023-02-12T00:21:31;4.60;99.90
4602;DHT22;2313;48.552;9.370;2023-02-12T00:23:57;4.60;99.90
4602;DHT22;2313;48.552;9.370;2023-02-12T00:26:23;4.60;99.90
4602;DHT22;2313;48.552;9.370;2023-02-12T00:28:49;4.60;99.90
4602;DHT22;2313;48.552;9.370;2023-02-12T00:31:18;4.60;99.90
4602;DHT22;2313;48.552;9.370;2023-02-12T00:33:44;4.60;99.90
4602;DHT22;2313;48.552;9.370;2023-02-12T00:36:14;4.60;99.90
4602;DHT22;2313;48.552;9.370;2023-02-12T00:38:40;4.70;99.90
4602;DHT22;2313;48.552;9.370;2023-02-12T00:41:06;4.60;99.90
4602;DHT22;2313;48.552;9.370;2023-02-12T00:43:32;4.60;99.90
4602;DHT22;2313;48.552;9.370;2023-02-12T00:45:57;4.60;99.90
4602;DHT22;2313;48.552;9.370;2023-02-12T00:48:23;4.60;99.90
4602;DHT22;2313;48.552;9.370;2023-02-12T00:50:50;4.60;99.90
4602;DHT22;2313;48.552;9.370;2023-02-12T00:53:16;4.60;99.90
4602;DHT22;2313;48.552;9.370;2023-02-12T00:55:42;4.60;99.90
4602;DHT22;2313;48.552;9.370;2023-02-12T00:58:08;4.50;99.90
4602;DHT22;2313;48.552;9.370;2023-02-12T01:00:34;4.50;99.90
4602;DHT22;2313;48.552;9.370;2023-02-12T01:02:59;4.50;99.90
4602;DHT22;2313;48.552;9.370;2023-02-12T01:05:25;4.50;99.90
4602;DHT22;2313;48.552;9.370;2023-02-12T01:07:52;4.50;99.90
4602;DHT22;2313;48.552;9.370;2023-02-12T01:10:18;4.50;99.90
4602;DHT22;2313;48.552;9.370;2023-02-12T01:12:48;4.50;99.90
4602;DHT22;2313;48.552;9.370;2023-02-12T01:15:15;4.50;99.90
4602;DHT22;2313;48.552;9.370;2023-02-12T01:17:41;4.50;99.90
4602;DHT22;2313;48.552;9.370;2023-02-12T01:20:08;4.40;99.90
4602;DHT22;2313;48.552;9.370;2023-02-12T01:22:35;4.50;99.90
4602;DHT22;2313;48.552;9.370;2023-02-12T01:25:02;4.40;99.90
4602;DHT22;2313;48.552;9.370;2023-02-12T01:27:28;4.50;99.90
4602;DHT22;2313;48.552;9.370;2023-02-12T01:29:54;4.50;99.90
4602;DHT22;2313;48.552;9.370;2023-02-12T01:32:20;4.50;99.90
4602;DHT22;2313;48.552;9.370;2023-02-12T01:34:45;4.50;99.90
4602;DHT22;2313;48.552;9.370;2023-02-12T01:37:17;4.50;99.90
4602;DHT22;2313;48.552;9.370;2023-02-12T01:39:43;4.50;99.90
4602;DHT22;2313;48.552;9.370;2023-02-12T01:42:12;4.50;99.90
4602;DHT22;2313;48.552;9.370;2023-02-12T01:47:42;4.50;99.90
4602;DHT22;2313;48.552;9.370;2023-02-12T01:50:17;4.50;99.90
4602;DHT22;2313;48.552;9.370;2023-02-12T01:52:47;4.50;99.90
4602;DHT22;2313;48.552;9.370;2023-02-12T01:55:15;4.40;99.90
4602;DHT22;2313;48.552;9.370;2023-02-12T01:57:43;4.40;99.90
4602;DHT22;2313;48.552;9.370;2023-02-12T02:00:13;4.40;99.90
4602;DHT22;2313;48.552;9.370;2023-02-12T02:02:42;4.40;99.90
4602;DHT22;2313;48.552;9.370;2023-02-12T02:05:09;4.50;99.90
4602;DHT22;2313;48.552;9.370;2023-02-12T02:07:37;4.40;99.90
4602;DHT22;2313;48.552;9.370;2023-02-12T02:10:03;4.50;99.90
4602;DHT22;2313;48.552;9.370;2023-02-12T02:12:29;4.50;99.90
4602;DHT22;2313;48.552;9.370;2023-02-12T02:15:14;4.50;99.90
4602;DHT22;2313;48.552;9.370;2023-02-12T02:29:08;4.50;99.90
4602;DHT22;2313;48.552;9.370;2023-02-12T02:40:32;4.40;99.90
4602;DHT22;2313;48.552;9.370;2023-02-12T02:43:01;4.50;99.90
4602;DHT22;2313;48.552;9.370;2023-02-12T02:45:42;4.40;99.90
4602;DHT22;2313;48.552;9.370;2023-02-12T02:48:44;4.40;99.90
4602;DHT22;2313;48.552;9.370;2023-02-12T02:51:46;4.30;99.90
4602;DHT22;2313;48.552;9.370;2023-02-12T02:54:26;4.40;99.90
4602;DHT22;2313;48.552;9.370;2023-02-12T02:57:09;4.30;99.90
4602;DHT22;2313;48.552;9.370;2023-02-12T02:59:41;4.30;99.90
4602;DHT22;2313;48.552;9.370;2023-02-12T03:02:30;4.40;99.90
4602;DHT22;2313;48.552;9.370;2023-02-12T03:05:03;4.30;99.90
4602;DHT22;2313;48.552;9.370;2023-02-12T03:07:37;4.30;99.90
4602;DHT22;2313;48.552;9.370;2023-02-12T03:10:14;4.30;99.90
4602;DHT22;2313;48.552;9.370;2023-02-12T03:12:54;4.30;99.90
4602;DHT22;2313;48.552;9.370;2023-02-12T03:15:31;4.40;99.90
4602;DHT22;2313;48.552;9.370;2023-02-12T03:18:00;4.30;99.90
4602;DHT22;2313;48.552;9.370;2023-02-12T03:20:37;4.30;99.90
4602;DHT22;2313;48.552;9.370;2023-02-12T03:23:20;4.10;99.90
4602;DHT22;2313;48.552;9.370;2023-02-12T03:25:54;4.30;99.90
4602;DHT22;2313;48.552;9.370;2023-02-12T03:28:32;4.40;99.90
4602;DHT22;2313;48.552;9.370;2023-02-12T03:34:44;4.40;99.90
4602;DHT22;2313;48.552;9.370;2023-02-12T03:37:02;4.30;99.90
4602;DHT22;2313;48.552;9.370;2023-02-12T03:39:56;4.40;99.90
4602;DHT22;2313;48.552;9.370;2023-02-12T03:47:58;4.30;99.90
4602;DHT22;2313;48.552;9.370;2023-02-12T03:50:41;4.30;99.90
4602;DHT22;2313;48.552;9.370;2023-02-12T03:53:09;4.40;99.90
4602;DHT22;2313;48.552;9.370;2023-02-12T03:55:38;4.30;99.90
4602;DHT22;2313;48.552;9.370;2023-02-12T03:58:07;4.30;99.90
4602;DHT22;2313;48.552;9.370;2023-02-12T04:00:37;4.30;99.90
4602;DHT22;2313;48.552;9.370;2023-02-12T04:03:04;4.30;99.90
4602;DHT22;2313;48.552;9.370;2023-02-12T04:05:30;4.20;99.90
4602;DHT22;2313;48.552;9.370;2023-02-12T04:07:57;4.10;99.90
4602;DHT22;2313;48.552;9.370;2023-02-12T04:10:30;4.00;99.90
4602;DHT22;2313;48.552;9.370;2023-02-12T04:15:56;4.10;99.90
4602;DHT22;2313;48.552;9.370;2023-02-12T04:18:40;4.20;99.90
4602;DHT22;2313;48.552;9.370;2023-02-12T04:27:05;4.30;99.90
4602;DHT22;2313;48.552;9.370;2023-02-12T04:38:08;4.40;99.90
4602;DHT22;2313;48.552;9.370;2023-02-12T04:40:38;4.30;99.90
4602;DHT22;2313;48.552;9.370;2023-02-12T04:43:04;4.30;99.90
4602;DHT22;2313;48.552;9.370;2023-02-12T04:45:31;4.30;99.90
4602;DHT22;2313;48.552;9.370;2023-02-12T04:47:58;4.30;99.90
4602;DHT22;2313;48.552;9.370;2023-02-12T04:50:24;4.40;99.90
4602;DHT22;2313;48.552;9.370;2023-02-12T04:52:50;4.40;99.90
4602;DHT22;2313;48.552;9.370;2023-02-12T04:55:16;4.40;99.90
4602;DHT22;2313;48.552;9.370;2023-02-12T04:57:41;4.40;99.90
4602;DHT22;2313;48.552;9.370;2023-02-12T05:00:10;4.30;99.90
4602;DHT22;2313;48.552;9.370;2023-02-12T05:02:36;4.30;99.90
4602;DHT22;2313;48.552;9.370;2023-02-12T05:05:02;4.30;99.90
4602;DHT22;2313;48.552;9.370;2023-02-12T05:07:27;4.30;99.90
4602;DHT22;2313;48.552;9.370;2023-02-12T05:09:53;4.30;99.90
4602;DHT22;2313;48.552;9.370;2023-02-12T05:12:19;4.40;99.90
4602;DHT22;2313;48.552;9.370;2023-02-12T05:14:45;4.40;99.90
4602;DHT22;2313;48.552;9.370;2023-02-12T05:17:10;4.40;99.90
4602;DHT22;2313;48.552;9.370;2023-02-12T05:19:36;4.30;99.90
4602;DHT22;2313;48.552;9.370;2023-02-12T05:22:01;4.30;99.90
4602;DHT22;2313;48.552;9.370;2023-02-12T05:24:27;4.30;99.90
4602;DHT22;2313;48.552;9.370;2023-02-12T05:26:52;4.20;99.90
4602;DHT22;2313;48.552;9.370;2023-02-12T05:29:18;4.30;99.90
4602;DHT22;2313;48.552;9.370;2023-02-12T05:31:44;4.30;99.90
4602;DHT22;2313;48.552;9.370;2023-02-12T05:34:11;4.30;99.90
4602;DHT22;2313;48.552;9.370;2023-02-12T05:36:38;4.30;99.90
4602;DHT22;2313;48.552;9.370;2023-02-12T05:39:05;4.20;99.90
4602;DHT22;2313;48.552;9.370;2023-02-12T05:41:32;4.20;99.90
4602;DHT22;2313;48.552;9.370;2023-02-12T05:44:02;4.20;99.90
4602;DHT22;2313;48.552;9.370;2023-02-12T05:46:28;4.20;99.90
4602;DHT22;2313;48.552;9.370;2023-02-12T05:48:53;4.20;99.90
4602;DHT22;2313;48.552;9.370;2023-02-12T05:51:21;4.20;99.90
4602;DHT22;2313;48.552;9.370;2023-02-12T05:53:49;4.20;99.90
4602;DHT22;2313;48.552;9.370;2023-02-12T05:56:17;4.20;99.90
4602;DHT22;2313;48.552;9.370;2023-02-12T05:58:45;4.20;99.90
4602;DHT22;2313;48.552;9.370;2023-02-12T06:01:16;4.10;99.90
4602;DHT22;2313;48.552;9.370;2023-02-12T06:03:42;4.20;99.90
4602;DHT22;2313;48.552;9.370;2023-02-12T06:06:09;4.10;99.90
4602;DHT22;2313;48.552;9.370;2023-02-12T06:08:35;4.10;99.90
4602;DHT22;2313;48.552;9.370;2023-02-12T06:11:02;4.10;99.90
4602;DHT22;2313;48.552;9.370;2023-02-12T06:13:29;4.10;99.90
4602;DHT22;2313;48.552;9.370;2023-02-12T06:15:55;4.10;99.90
4602;DHT22;2313;48.552;9.370;2023-02-12T06:18:21;4.00;99.90
4602;DHT22;2313;48.552;9.370;2023-02-12T06:20:47;4.00;99.90
4602;DHT22;2313;48.552;9.370;2023-02-12T06:23:13;3.90;99.90
4602;DHT22;2313;48.552;9.370;2023-02-12T06:25:38;3.80;99.90
4602;DHT22;2313;48.552;9.370;2023-02-12T06:28:04;3.80;99.90
4602;DHT22;2313;48.552;9.370;2023-02-12T06:30:29;3.80;99.90
4602;DHT22;2313;48.552;9.370;2023-02-12T06:32:56;3.70;99.90
4602;DHT22;2313;48.552;9.370;2023-02-12T06:35:22;3.60;99.90
4602;DHT22;2313;48.552;9.370;2023-02-12T06:37:47;3.60;99.90
4602;DHT22;2313;48.552;9.370;2023-02-12T06:40:13;3.50;99.90
4602;DHT22;2313;48.552;9.370;2023-02-12T06:42:39;3.40;99.90
4602;DHT22;2313;48.552;9.370;2023-02-12T06:45:04;3.30;99.90
4602;DHT22;2313;48.552;9.370;2023-02-12T06:47:30;3.30;99.90
4602;DHT22;2313;48.552;9.370;2023-02-12T06:49:56;3.30;99.90
4602;DHT22;2313;48.552;9.370;2023-02-12T06:52:21;3.20;99.90
4602;DHT22;2313;48.552;9.370;2023-02-12T06:54:47;3.10;99.90
4602;DHT22;2313;48.552;9.370;2023-02-12T06:57:13;3.10;99.90
4602;DHT22;2313;48.552;9.370;2023-02-12T06:59:38;3.00;99.90
4602;DHT22;2313;48.552;9.370;2023-02-12T07:02:04;2.90;99.90
4602;DHT22;2313;48.552;9.370;2023-02-12T07:04:29;2.90;99.90
4602;DHT22;2313;48.552;9.370;2023-02-12T07:06:55;2.90;99.90
4602;DHT22;2313;48.552;9.370;2023-02-12T07:09:21;2.90;99.90
4602;DHT22;2313;48.552;9.370;2023-02-12T07:11:46;2.90;99.90
4602;DHT22;2313;48.552;9.370;2023-02-12T07:14:14;2.80;99.90
4602;DHT22;2313;48.552;9.370;2023-02-12T07:16:40;2.70;99.90
4602;DHT22;2313;48.552;9.370;2023-02-12T07:19:06;2.70;99.90
4602;DHT22;2313;48.552;9.370;2023-02-12T07:21:32;2.70;99.90
4602;DHT22;2313;48.552;9.370;2023-02-12T07:23:57;2.80;99.90
4602;DHT22;2313;48.552;9.370;2023-02-12T07:26:23;2.80;99.90
4602;DHT22;2313;48.552;9.370;2023-02-12T07:28:50;2.80;99.90
4602;DHT22;2313;48.552;9.370;2023-02-12T07:31:21;2.90;99.90
4602;DHT22;2313;48.552;9.370;2023-02-12T07:33:48;2.90;99.90
4602;DHT22;2313;48.552;9.370;2023-02-12T07:36:17;2.90;99.90
4602;DHT22;2313;48.552;9.370;2023-02-12T07:38:43;3.00;99.90
4602;DHT22;2313;48.552;9.370;2023-02-12T07:41:19;3.00;99.90
4602;DHT22;2313;48.552;9.370;2023-02-12T07:43:47;3.00;99.90
4602;DHT22;2313;48.552;9.370;2023-02-12T07:46:17;3.10;99.90
4602;DHT22;2313;48.552;9.370;2023-02-12T07:48:44;3.20;99.90
4602;DHT22;2313;48.552;9.370;2023-02-12T07:51:13;3.30;99.90
4602;DHT22;2313;48.552;9.370;2023-02-12T07:53:39;3.30;99.90
4602;DHT22;2313;48.552;9.370;2023-02-12T07:56:08;3.40;99.90
4602;DHT22;2313;48.552;9.370;2023-02-12T07:58:35;3.50;99.90
4602;DHT22;2313;48.552;9.370;2023-02-12T08:01:10;3.60;99.90
4602;DHT22;2313;48.552;9.370;2023-02-12T08:03:36;3.70;99.90
4602;DHT22;2313;48.552;9.370;2023-02-12T08:06:09;3.80;99.90
4602;DHT22;2313;48.552;9.370;2023-02-12T08:08:35;4.00;99.90
4602;DHT22;2313;48.552;9.370;2023-02-12T08:11:04;4.00;99.90
4602;DHT22;2313;48.552;9.370;2023-02-12T08:13:31;4.10;99.90
4602;DHT22;2313;48.552;9.370;2023-02-12T08:16:05;4.20;99.90
4602;DHT22;2313;48.552;9.370;2023-02-12T08:18:32;4.20;99.90
4602;DHT22;2313;48.552;9.370;2023-02-12T08:21:06;4.40;99.90
4602;DHT22;2313;48.552;9.370;2023-02-12T08:23:33;4.40;99.90
4602;DHT22;2313;48.552;9.370;2023-02-12T08:26:13;4.50;99.90
4602;DHT22;2313;48.552;9.370;2023-02-12T08:28:47;4.70;99.90
4602;DHT22;2313;48.552;9.370;2023-02-12T08:31:54;4.80;99.90
4602;DHT22;2313;48.552;9.370;2023-02-12T08:34:18;4.90;99.90
4602;DHT22;2313;48.552;9.370;2023-02-12T08:36:44;5.00;99.90
4602;DHT22;2313;48.552;9.370;2023-02-12T08:39:10;5.00;99.90
4602;DHT22;2313;48.552;9.370;2023-02-12T08:41:36;5.10;99.90
4602;DHT22;2313;48.552;9.370;2023-02-12T08:44:03;5.20;99.90
4602;DHT22;2313;48.552;9.370;2023-02-12T08:46:34;5.20;99.90
4602;DHT22;2313;48.552;9.370;2023-02-12T08:49:06;5.30;99.90
4602;DHT22;2313;48.552;9.370;2023-02-12T08:51:35;5.30;99.90
4602;DHT22;2313;48.552;9.370;2023-02-12T08:54:05;5.50;99.90
4602;DHT22;2313;48.552;9.370;2023-02-12T08:56:32;5.70;99.90
4602;DHT22;2313;48.552;9.370;2023-02-12T08:58:59;5.80;99.90
4602;DHT22;2313;48.552;9.370;2023-02-12T09:01:27;6.00;99.90
4602;DHT22;2313;48.552;9.370;2023-02-12T09:03:56;6.10;99.90
4602;DHT22;2313;48.552;9.370;2023-02-12T09:06:23;6.20;99.90
4602;DHT22;2313;48.552;9.370;2023-02-12T09:08:49;6.40;99.90
4602;DHT22;2313;48.552;9.370;2023-02-12T09:11:20;6.40;99.90
4602;DHT22;2313;48.552;9.370;2023-02-12T09:13:51;6.50;99.90
4602;DHT22;2313;48.552;9.370;2023-02-12T09:16:17;6.40;99.90
4602;DHT22;2313;48.552;9.370;2023-02-12T09:18:43;6.50;99.90
4602;DHT22;2313;48.552;9.370;2023-02-12T09:21:14;6.40;99.90
4602;DHT22;2313;48.552;9.370;2023-02-12T09:23:41;6.40;99.90
4602;DHT22;2313;48.552;9.370;2023-02-12T09:26:10;6.40;99.90
4602;DHT22;2313;48.552;9.370;2023-02-12T09:28:36;6.60;99.90
4602;DHT22;2313;48.552;9.370;2023-02-12T09:31:07;6.70;99.90
4602;DHT22;2313;48.552;9.370;2023-02-12T09:33:33;6.80;99.90
4602;DHT22;2313;48.552;9.370;2023-02-12T09:36:04;7.00;99.90
4602;DHT22;2313;48.552;9.370;2023-02-12T09:38:29;7.10;99.90
4602;DHT22;2313;48.552;9.370;2023-02-12T09:46:33;7.40;99.90
4602;DHT22;2313;48.552;9.370;2023-02-12T09:51:54;7.20;99.90
4602;DHT22;2313;48.552;9.370;2023-02-12T09:54:22;7.20;99.90
4602;DHT22;2313;48.552;9.370;2023-02-12T09:56:55;7.10;99.90
4602;DHT22;2313;48.552;9.370;2023-02-12T09:59:39;7.10;99.90
4602;DHT22;2313;48.552;9.370;2023-02-12T10:02:18;7.20;99.90
4602;DHT22;2313;48.552;9.370;2023-02-12T10:04:46;7.10;99.90
4602;DHT22;2313;48.552;9.370;2023-02-12T10:07:35;7.00;99.90
4602;DHT22;2313;48.552;9.370;2023-02-12T10:15:34;7.10;99.90
4602;DHT22;2313;48.552;9.370;2023-02-12T10:18:05;7.20;99.90
4602;DHT22;2313;48.552;9.370;2023-02-12T10:25:55;7.40;99.90
4602;DHT22;2313;48.552;9.370;2023-02-12T10:28:38;7.60;99.90
4602;DHT22;2313;48.552;9.370;2023-02-12T10:31:26;7.70;99.90
4602;DHT22;2313;48.552;9.370;2023-02-12T10:33:54;7.70;99.90
4602;DHT22;2313;48.552;9.370;2023-02-12T10:36:43;7.70;99.90
4602;DHT22;2313;48.552;9.370;2023-02-12T10:41:47;7.80;99.90
4602;DHT22;2313;48.552;9.370;2023-02-12T10:44:14;7.90;99.90
4602;DHT22;2313;48.552;9.370;2023-02-12T10:46:40;7.90;99.90
4602;DHT22;2313;48.552;9.370;2023-02-12T10:49:06;7.80;99.90
4602;DHT22;2313;48.552;9.370;2023-02-12T10:54:43;8.10;99.90
4602;DHT22;2313;48.552;9.370;2023-02-12T10:57:29;8.60;99.90
4602;DHT22;2313;48.552;9.370;2023-02-12T11:00:12;8.90;99.90
4602;DHT22;2313;48.552;9.370;2023-02-12T11:02:39;9.30;99.90
4602;DHT22;2313;48.552;9.370;2023-02-12T11:05:24;9.20;99.90
4602;DHT22;2313;48.552;9.370;2023-02-12T11:07:50;9.40;99.90
4602;DHT22;2313;48.552;9.370;2023-02-12T11:10:24;9.50;99.90
4602;DHT22;2313;48.552;9.370;2023-02-12T11:12:52;9.80;99.90
4602;DHT22;2313;48.552;9.370;2023-02-12T11:15:23;9.80;99.90
4602;DHT22;2313;48.552;9.370;2023-02-12T11:18:00;10.10;99.90
4602;DHT22;2313;48.552;9.370;2023-02-12T11:20:49;10.00;99.90
4602;DHT22;2313;48.552;9.370;2023-02-12T11:23:42;10.10;99.90
4602;DHT22;2313;48.552;9.370;2023-02-12T11:28:56;10.10;99.90
4602;DHT22;2313;48.552;9.370;2023-02-12T11:31:27;10.00;99.90
4602;DHT22;2313;48.552;9.370;2023-02-12T11:34:17;10.20;99.90
4602;DHT22;2313;48.552;9.370;2023-02-12T11:36:48;10.40;99.90
4602;DHT22;2313;48.552;9.370;2023-02-12T11:39:19;10.40;99.90
4602;DHT22;2313;48.552;9.370;2023-02-12T11:41:55;10.30;99.90
4602;DHT22;2313;48.552;9.370;2023-02-12T11:47:07;10.20;99.90
4602;DHT22;2313;48.552;9.370;2023-02-12T11:49:52;10.20;99.90
4602;DHT22;2313;48.552;9.370;2023-02-12T11:52:25;10.10;99.90
4602;DHT22;2313;48.552;9.370;2023-02-12T11:54:55;10.20;99.90
4602;DHT22;2313;48.552;9.370;2023-02-12T11:57:44;10.10;99.90
4602;DHT22;2313;48.552;9.370;2023-02-12T12:06:06;11.00;99.90
4602;DHT22;2313;48.552;9.370;2023-02-12T12:08:40;10.90;99.90
4602;DHT22;2313;48.552;9.370;2023-02-12T12:11:21;10.50;99.90
4602;DHT22;2313;48.552;9.370;2023-02-12T12:14:01;10.50;99.90
4602;DHT22;2313;48.552;9.370;2023-02-12T12:16:33;10.40;99.90
4602;DHT22;2313;48.552;9.370;2023-02-12T12:19:28;10.60;99.90
4602;DHT22;2313;48.552;9.370;2023-02-12T12:25:28;11.20;99.90
4602;DHT22;2313;48.552;9.370;2023-02-12T12:31:08;11.30;99.90
4602;DHT22;2313;48.552;9.370;2023-02-12T12:36:58;11.00;99.90
4602;DHT22;2313;48.552;9.370;2023-02-12T12:45:08;11.90;99.90
4602;DHT22;2313;48.552;9.370;2023-02-12T12:53:41;11.50;99.90
4602;DHT22;2313;48.552;9.370;2023-02-12T13:13:35;10.90;99.90
4602;DHT22;2313;48.552;9.370;2023-02-12T13:16:27;11.00;99.90
4602;DHT22;2313;48.552;9.370;2023-02-12T13:20:03;11.10;99.90
4602;DHT22;2313;48.552;9.370;2023-02-12T13:22:10;10.80;99.90
4602;DHT22;2313;48.552;9.370;2023-02-12T13:24:51;10.80;99.90
4602;DHT22;2313;48.552;9.370;2023-02-12T13:27:30;10.30;99.90
4602;DHT22;2313;48.552;9.370;2023-02-12T13:30:14;10.90;99.90
4602;DHT22;2313;48.552;9.370;2023-02-12T13:32:44;10.90;99.90
4602;DHT22;2313;48.552;9.370;2023-02-12T13:35:18;10.80;99.90
4602;DHT22;2313;48.552;9.370;2023-02-12T13:37:56;10.40;99.90
4602;DHT22;2313;48.552;9.370;2023-02-12T13:40:29;10.40;99.90
4602;DHT22;2313;48.552;9.370;2023-02-12T13:43:02;10.50;99.90
4602;DHT22;2313;48.552;9.370;2023-02-12T13:51:45;10.90;99.90
4602;DHT22;2313;48.552;9.370;2023-02-12T13:56:49;10.50;99.90
4602;DHT22;2313;48.552;9.370;2023-02-12T14:02:03;9.80;99.90
4602;DHT22;2313;48.552;9.370;2023-02-12T14:07:07;9.20;99.90
4602;DHT22;2313;48.552;9.370;2023-02-12T14:12:26;8.90;99.90
4602;DHT22;2313;48.552;9.370;2023-02-12T14:15:09;8.90;99.90
4602;DHT22;2313;48.552;9.370;2023-02-12T14:27:54;8.90;99.90
4602;DHT22;2313;48.552;9.370;2023-02-12T14:37:58;9.10;99.90
4602;DHT22;2313;48.552;9.370;2023-02-12T14:43:22;9.10;99.90
4602;DHT22;2313;48.552;9.370;2023-02-12T14:45:48;9.20;99.90
4602;DHT22;2313;48.552;9.370;2023-02-12T14:51:05;9.30;99.90
4602;DHT22;2313;48.552;9.370;2023-02-12T14:53:34;9.30;99.90
4602;DHT22;2313;48.552;9.370;2023-02-12T14:56:02;9.30;99.90
4602;DHT22;2313;48.552;9.370;2023-02-12T14:58:28;9.30;99.90
4602;DHT22;2313;48.552;9.370;2023-02-12T15:00:58;9.30;99.90
4602;DHT22;2313;48.552;9.370;2023-02-12T15:08:44;9.10;99.90
4602;DHT22;2313;48.552;9.370;2023-02-12T15:11:40;9.00;99.90
4602;DHT22;2313;48.552;9.370;2023-02-12T15:14:27;8.90;99.90
4602;DHT22;2313;48.552;9.370;2023-02-12T15:19:45;9.20;99.90
4602;DHT22;2313;48.552;9.370;2023-02-12T15:22:19;9.00;99.90
4602;DHT22;2313;48.552;9.370;2023-02-12T15:24:46;9.00;99.90
4602;DHT22;2313;48.552;9.370;2023-02-12T15:27:13;8.90;99.90
4602;DHT22;2313;48.552;9.370;2023-02-12T15:29:45;9.00;99.90
4602;DHT22;2313;48.552;9.370;2023-02-12T15:32:26;8.90;99.90
4602;DHT22;2313;48.552;9.370;2023-02-12T15:34:53;8.80;99.90
4602;DHT22;2313;48.552;9.370;2023-02-12T15:37:26;8.70;99.90
4602;DHT22;2313;48.552;9.370;2023-02-12T15:40:00;8.80;99.90
4602;DHT22;2313;48.552;9.370;2023-02-12T15:42:36;8.70;99.90
4602;DHT22;2313;48.552;9.370;2023-02-12T15:47:34;8.30;99.90
4602;DHT22;2313;48.552;9.370;2023-02-12T15:50:00;8.10;99.90
4602;DHT22;2313;48.552;9.370;2023-02-12T15:52:33;8.00;99.90
4602;DHT22;2313;48.552;9.370;2023-02-12T15:55:02;7.90;99.90
4602;DHT22;2313;48.552;9.370;2023-02-12T15:57:29;7.80;99.90
4602;DHT22;2313;48.552;9.370;2023-02-12T16:00:05;7.60;99.90
4602;DHT22;2313;48.552;9.370;2023-02-12T16:02:31;7.50;99.90
4602;DHT22;2313;48.552;9.370;2023-02-12T16:05:02;7.50;99.90
4602;DHT22;2313;48.552;9.370;2023-02-12T16:07:30;7.40;99.90
4602;DHT22;2313;48.552;9.370;2023-02-12T16:09:59;7.40;99.90
4602;DHT22;2313;48.552;9.370;2023-02-12T16:12:29;7.20;99.90
4602;DHT22;2313;48.552;9.370;2023-02-12T16:14:57;7.00;99.90
4602;DHT22;2313;48.552;9.370;2023-02-12T16:22:32;6.60;99.90
4602;DHT22;2313;48.552;9.370;2023-02-12T16:24:59;6.60;99.90
4602;DHT22;2313;48.552;9.370;2023-02-12T16:27:33;6.60;99.90
4602;DHT22;2313;48.552;9.370;2023-02-12T16:30:02;6.50;99.90
4602;DHT22;2313;48.552;9.370;2023-02-12T16:35:05;6.50;99.90
4602;DHT22;2313;48.552;9.370;2023-02-12T16:37:51;6.50;99.90
4602;DHT22;2313;48.552;9.370;2023-02-12T16:40:20;6.60;99.90
4602;DHT22;2313;48.552;9.370;2023-02-12T16:50:20;6.20;99.90
4602;DHT22;2313;48.552;9.370;2023-02-12T16:52:48;6.10;99.90
4602;DHT22;2313;48.552;9.370;2023-02-12T16:55:16;6.10;99.90
4602;DHT22;2313;48.552;9.370;2023-02-12T16:57:42;6.00;99.90
4602;DHT22;2313;48.552;9.370;2023-02-12T17:00:11;6.00;99.90
4602;DHT22;2313;48.552;9.370;2023-02-12T17:02:40;5.90;99.90
4602;DHT22;2313;48.552;9.370;2023-02-12T17:05:05;5.90;99.90
4602;DHT22;2313;48.552;9.370;2023-02-12T17:07:32;5.90;99.90
4602;DHT22;2313;48.552;9.370;2023-02-12T17:09:58;6.00;99.90
4602;DHT22;2313;48.552;9.370;2023-02-12T17:12:24;5.80;99.90
4602;DHT22;2313;48.552;9.370;2023-02-12T17:14:50;5.90;99.90
4602;DHT22;2313;48.552;9.370;2023-02-12T17:17:16;5.90;99.90
4602;DHT22;2313;48.552;9.370;2023-02-12T17:19:42;5.90;99.90
4602;DHT22;2313;48.552;9.370;2023-02-12T17:22:17;5.80;99.90
4602;DHT22;2313;48.552;9.370;2023-02-12T17:24:44;5.80;99.90
4602;DHT22;2313;48.552;9.370;2023-02-12T17:27:18;5.70;99.90
4602;DHT22;2313;48.552;9.370;2023-02-12T17:29:44;5.70;99.90
4602;DHT22;2313;48.552;9.370;2023-02-12T17:32:11;5.70;99.90
4602;DHT22;2313;48.552;9.370;2023-02-12T17:34:36;5.60;99.90
4602;DHT22;2313;48.552;9.370;2023-02-12T17:37:03;5.60;99.90
4602;DHT22;2313;48.552;9.370;2023-02-12T17:39:28;5.70;99.90
4602;DHT22;2313;48.552;9.370;2023-02-12T17:41:54;5.50;99.90
4602;DHT22;2313;48.552;9.370;2023-02-12T17:44:20;5.30;99.90
4602;DHT22;2313;48.552;9.370;2023-02-12T17:46:46;5.10;99.90
4602;DHT22;2313;48.552;9.370;2023-02-12T17:49:11;5.10;99.90
4602;DHT22;2313;48.552;9.370;2023-02-12T17:51:37;5.00;99.90
4602;DHT22;2313;48.552;9.370;2023-02-12T17:54:03;4.80;99.90
4602;DHT22;2313;48.552;9.370;2023-02-12T17:56:29;4.80;99.90
4602;DHT22;2313;48.552;9.370;2023-02-12T17:58:55;4.90;99.90
4602;DHT22;2313;48.552;9.370;2023-02-12T18:01:22;4.80;99.90
4602;DHT22;2313;48.552;9.370;2023-02-12T18:03:47;4.80;99.90
4602;DHT22;2313;48.552;9.370;2023-02-12T18:06:21;4.80;99.90
4602;DHT22;2313;48.552;9.370;2023-02-12T18:08:46;4.60;99.90
4602;DHT22;2313;48.552;9.370;2023-02-12T18:11:12;4.60;99.90
4602;DHT22;2313;48.552;9.370;2023-02-12T18:13:38;4.50;99.90
4602;DHT22;2313;48.552;9.370;2023-02-12T18:16:06;4.30;99.90
4602;DHT22;2313;48.552;9.370;2023-02-12T18:18:33;4.20;99.90
4602;DHT22;2313;48.552;9.370;2023-02-12T18:20:59;4.10;99.90
4602;DHT22;2313;48.552;9.370;2023-02-12T18:23:24;3.90;99.90
4602;DHT22;2313;48.552;9.370;2023-02-12T18:25:50;3.80;99.90
4602;DHT22;2313;48.552;9.370;2023-02-12T18:28:15;3.70;99.90
4602;DHT22;2313;48.552;9.370;2023-02-12T18:30:41;3.50;99.90
4602;DHT22;2313;48.552;9.370;2023-02-12T18:33:08;3.40;99.90
4602;DHT22;2313;48.552;9.370;2023-02-12T18:35:34;3.30;99.90
4602;DHT22;2313;48.552;9.370;2023-02-12T18:38:01;3.20;99.90
4602;DHT22;2313;48.552;9.370;2023-02-12T18:40:27;3.20;99.90
4602;DHT22;2313;48.552;9.370;2023-02-12T18:42:53;3.20;99.90
4602;DHT22;2313;48.552;9.370;2023-02-12T18:45:18;3.20;99.90
4602;DHT22;2313;48.552;9.370;2023-02-12T18:47:44;3.30;99.90
4602;DHT22;2313;48.552;9.370;2023-02-12T18:50:10;3.10;99.90
4602;DHT22;2313;48.552;9.370;2023-02-12T18:52:35;3.00;99.90
4602;DHT22;2313;48.552;9.370;2023-02-12T18:55:02;3.10;99.90
4602;DHT22;2313;48.552;9.370;2023-02-12T18:57:28;3.10;99.90
4602;DHT22;2313;48.552;9.370;2023-02-12T18:59:55;3.20;99.90
4602;DHT22;2313;48.552;9.370;2023-02-12T19:02:21;3.20;99.90
4602;DHT22;2313;48.552;9.370;2023-02-12T19:04:46;3.20;99.90
4602;DHT22;2313;48.552;9.370;2023-02-12T19:07:12;3.20;99.90
4602;DHT22;2313;48.552;9.370;2023-02-12T19:09:38;3.20;99.90
4602;DHT22;2313;48.552;9.370;2023-02-12T19:12:03;3.30;99.90
4602;DHT22;2313;48.552;9.370;2023-02-12T19:14:31;3.30;99.90
4602;DHT22;2313;48.552;9.370;2023-02-12T19:16:57;3.30;99.90
4602;DHT22;2313;48.552;9.370;2023-02-12T19:19:23;3.20;99.90
4602;DHT22;2313;48.552;9.370;2023-02-12T19:21:49;3.10;99.90
4602;DHT22;2313;48.552;9.370;2023-02-12T19:24:16;3.10;99.90
4602;DHT22;2313;48.552;9.370;2023-02-12T19:26:42;3.10;99.90
4602;DHT22;2313;48.552;9.370;2023-02-12T19:29:09;3.10;99.90
4602;DHT22;2313;48.552;9.370;2023-02-12T19:31:37;3.10;99.90
4602;DHT22;2313;48.552;9.370;2023-02-12T19:34:05;3.00;99.90
4602;DHT22;2313;48.552;9.370;2023-02-12T19:36:32;3.00;99.90
4602;DHT22;2313;48.552;9.370;2023-02-12T19:38:58;2.90;99.90
4602;DHT22;2313;48.552;9.370;2023-02-12T19:41:26;2.80;99.90
4602;DHT22;2313;48.552;9.370;2023-02-12T19:43:53;2.70;99.90
4602;DHT22;2313;48.552;9.370;2023-02-12T19:46:20;2.60;99.90